Time;durP1;ratioP1;P1;durP2;ratioP2;P2;SDS_P1;SDS_P2;PMS_P1;PMS_P2;Temp;Humidity;BMP_temperature;BMP_pressure;BME280_temperature;BME280_humidity;BME280_pressure;Samples;Min_cycle;Max_cycle;Signal;HPM_P1;HPM_P2
2023/06/11 00:01:18;;;;;;;18.10;5.07;;;;;;;39.70;37.39;101175.03;5115518;28;20518;-88
2023/06/11 00:03:46;;;;;;;12.57;5.03;;;;;;;39.79;37.12;101179.72;5114828;28;20226;-87
2023/06/11 00:06:17;;;;;;;15.57;4.60;;;;;;;39.89;36.82;101187.59;5101310;28;20469;-88
2023/06/11 00:08:45;;;;;;;11.07;4.43;;;;;;;39.88;36.65;101181.34;5117540;27;20466;-88
2023/06/11 00:11:11;;;;;;;14.80;4.30;;;;;;;39.91;36.64;101179.94;5118101;27;20808;-88
2023/06/11 00:13:37;;;;;;;9.20;3.90;;;;;;;39.78;36.36;101183.53;5118200;27;20419;-88
2023/06/11 00:16:03;;;;;;;9.83;4.10;;;;;;;39.74;36.45;101186.88;5117753;27;20443;-88
2023/06/11 00:18:29;;;;;;;12.50;4.50;;;;;;;39.64;36.61;101176.28;5117857;27;20419;-88
2023/06/11 00:20:56;;;;;;;10.43;3.80;;;;;;;39.67;36.97;101180.31;5117945;27;20425;-88
2023/06/11 00:23:23;;;;;;;11.10;4.00;;;;;;;39.67;37.17;101169.44;5118117;27;20445;-88
2023/06/11 00:25:49;;;;;;;20.23;5.77;;;;;;;39.73;37.15;101179.84;5117845;27;20455;-88
2023/06/11 00:28:15;;;;;;;9.20;3.43;;;;;;;39.79;37.07;101156.09;5117200;27;20462;-88
2023/06/11 00:30:41;;;;;;;19.63;5.73;;;;;;;39.79;36.90;101160.72;5117886;27;20424;-88
2023/06/11 00:33:07;;;;;;;14.77;4.63;;;;;;;39.58;37.17;101153.06;5117337;27;20234;-88
2023/06/11 00:35:35;;;;;;;12.33;4.10;;;;;;;39.73;37.11;101155.41;5117726;27;20181;-88
2023/06/11 00:38:02;;;;;;;14.00;5.30;;;;;;;39.69;37.38;101149.00;5117491;27;20215;-88
2023/06/11 00:40:28;;;;;;;15.70;5.20;;;;;;;39.73;37.52;101149.19;5117848;27;20454;-88
2023/06/11 00:42:54;;;;;;;15.20;5.90;;;;;;;39.83;37.68;101148.09;5117679;27;20960;-90
2023/06/11 00:45:24;;;;;;;11.43;5.33;;;;;;;39.81;38.08;101145.69;5118365;27;20426;-90
2023/06/11 00:47:50;;;;;;;16.60;7.10;;;;;;;39.93;37.51;101148.63;5118020;27;20549;-89
2023/06/11 00:50:16;;;;;;;13.33;4.37;;;;;;;39.92;37.68;101136.16;5117349;27;20422;-89
2023/06/11 00:52:43;;;;;;;16.33;6.90;;;;;;;39.73;38.38;101139.13;5117237;27;20435;-89
2023/06/11 00:55:11;;;;;;;10.40;4.70;;;;;;;39.89;38.01;101139.50;5117397;27;20419;-88
2023/06/11 00:57:41;;;;;;;16.20;5.23;;;;;;;39.74;37.95;101129.84;5117397;27;20450;-88
2023/06/11 01:00:12;;;;;;;11.57;4.40;;;;;;;39.75;38.30;101142.31;5117661;27;20431;-89
2023/06/11 01:02:47;;;;;;;12.20;6.37;;;;;;;39.87;38.06;101138.22;5117168;27;20515;-88
2023/06/11 01:05:17;;;;;;;14.03;5.63;;;;;;;39.89;37.51;101135.97;5105438;28;20942;-88
2023/06/11 01:07:51;;;;;;;12.70;4.67;;;;;;;39.84;37.73;101136.13;5116067;27;20423;-88
2023/06/11 01:10:21;;;;;;;13.63;5.57;;;;;;;39.91;37.77;101144.63;5113193;28;20499;-87
2023/06/11 01:12:48;;;;;;;11.20;5.00;;;;;;;39.56;38.17;101143.63;5100931;28;20431;-88
2023/06/11 01:15:14;;;;;;;10.30;4.40;;;;;;;39.68;38.11;101144.69;5114106;28;20424;-90
2023/06/11 01:17:54;;;;;;;11.97;4.67;;;;;;;39.43;38.31;101134.44;5114202;28;20460;-89
2023/06/11 01:20:35;;;;;;;15.30;6.67;;;;;;;39.58;38.08;101130.53;5112565;28;20798;-87
2023/06/11 01:23:20;;;;;;;11.43;4.53;;;;;;;39.50;38.19;101134.81;5113337;28;20463;-88
2023/06/11 01:26:16;;;;;;;11.37;4.97;;;;;;;39.59;38.43;101132.94;5100961;28;20541;-88
2023/06/11 01:28:46;;;;;;;15.10;5.97;;;;;;;39.35;38.38;101116.19;5113874;28;20408;-90
2023/06/11 01:31:15;;;;;;;16.10;4.70;;;;;;;39.59;38.49;101132.94;5113768;28;20448;-90
2023/06/11 01:33:44;;;;;;;13.53;5.77;;;;;;;39.50;38.81;101126.66;5112790;28;20477;-87
2023/06/11 01:36:10;;;;;;;20.17;4.60;;;;;;;39.45;38.42;101126.78;5112847;28;20443;-87
2023/06/11 01:38:44;;;;;;;14.63;5.00;;;;;;;39.45;38.18;101126.78;5113273;28;20419;-88
2023/06/11 01:41:14;;;;;;;17.60;5.53;;;;;;;39.44;38.46;101122.47;5112236;28;20431;-88
2023/06/11 01:43:41;;;;;;;16.13;4.97;;;;;;;39.37;38.35;101122.91;5113145;28;20857;-88
2023/06/11 01:46:07;;;;;;;15.30;4.47;;;;;;;39.25;38.23;101119.16;5113016;28;20505;-88
2023/06/11 01:49:17;;;;;;;14.20;5.77;;;;;;;39.50;38.52;101119.31;5112711;28;20527;-88
2023/06/11 01:54:47;;;;;;;11.17;4.87;;;;;;;39.65;37.99;101112.72;5114608;28;20478;-89
2023/06/11 01:57:14;;;;;;;21.10;5.63;;;;;;;39.67;38.09;101107.78;5112704;28;20452;-88
2023/06/11 01:59:40;;;;;;;23.63;6.10;;;;;;;39.65;38.28;101104.56;5112772;28;20435;-88
2023/06/11 02:02:08;;;;;;;22.57;5.97;;;;;;;39.72;38.26;101096.78;5112091;28;20419;-87
2023/06/11 02:04:35;;;;;;;17.37;5.00;;;;;;;39.61;38.51;101103.59;5106349;28;20428;-88
2023/06/11 02:07:01;;;;;;;10.57;5.40;;;;;;;39.66;38.39;101106.19;5105644;28;20460;-88
2023/06/11 02:09:27;;;;;;;14.70;6.37;;;;;;;39.69;38.19;101094.69;5112027;28;20474;-88
2023/06/11 02:11:53;;;;;;;25.50;6.10;;;;;;;39.60;38.77;101091.16;5112584;28;20416;-88
2023/06/11 02:14:19;;;;;;;14.33;5.50;;;;;;;39.74;38.36;101093.75;5112518;28;20419;-88
2023/06/11 02:16:45;;;;;;;18.73;6.77;;;;;;;39.64;38.65;101086.66;5112659;28;20265;-88
2023/06/11 02:19:11;;;;;;;18.70;6.07;;;;;;;39.71;38.71;101089.72;5112168;28;20481;-88
2023/06/11 02:21:36;;;;;;;15.37;4.87;;;;;;;39.64;38.22;101088.59;5111980;28;20202;-88
2023/06/11 02:24:02;;;;;;;22.43;5.00;;;;;;;39.76;38.06;101091.50;5111954;28;20501;-88
2023/06/11 02:26:28;;;;;;;17.33;6.00;;;;;;;39.80;38.09;101092.50;5112280;28;20285;-87
2023/06/11 02:28:54;;;;;;;20.60;7.63;;;;;;;39.75;38.54;101100.78;5098342;28;20530;-88
2023/06/11 02:31:20;;;;;;;10.50;4.80;;;;;;;39.76;38.24;101095.03;5112001;28;20668;-87
2023/06/11 02:33:49;;;;;;;19.27;7.20;;;;;;;39.76;38.34;101095.03;5098862;28;20416;-89
2023/06/11 02:36:15;;;;;;;13.23;6.90;;;;;;;39.63;38.94;101095.13;5112383;28;20570;-89
2023/06/11 02:38:41;;;;;;;12.47;4.23;;;;;;;39.65;38.74;101088.28;5112306;28;20957;-88
2023/06/11 02:41:07;;;;;;;13.63;5.03;;;;;;;39.65;38.33;101088.28;5111650;28;20426;-89
2023/06/11 02:43:36;;;;;;;15.47;6.20;;;;;;;39.63;38.36;101079.66;5111777;28;20202;-88
2023/06/11 02:46:02;;;;;;;14.17;4.60;;;;;;;39.48;38.06;101082.75;5111901;28;20198;-88
2023/06/11 02:48:28;;;;;;;12.40;4.33;;;;;;;39.63;38.04;101085.06;5111519;28;20424;-88
2023/06/11 02:50:53;;;;;;;15.40;6.80;;;;;;;39.74;37.84;101088.31;5111053;28;20229;-87
2023/06/11 02:53:19;;;;;;;23.23;5.10;;;;;;;39.68;38.00;101093.09;5112108;28;20182;-88
2023/06/11 02:55:45;;;;;;;16.70;4.67;;;;;;;39.74;37.83;101104.63;5111424;28;20174;-87
2023/06/11 02:58:11;;;;;;;10.53;4.70;;;;;;;39.70;37.42;101090.84;5111414;28;20229;-88
2023/06/11 03:00:37;;;;;;;18.07;5.03;;;;;;;39.60;37.90;101087.59;5111644;28;20510;-87
2023/06/11 03:03:03;;;;;;;16.90;6.27;;;;;;;39.68;37.41;101101.25;5111437;28;20190;-88
2023/06/11 03:05:29;;;;;;;15.63;6.53;;;;;;;39.71;37.59;101111.47;5097941;28;20574;-88
2023/06/11 03:07:55;;;;;;;18.17;6.97;;;;;;;39.73;37.65;101101.09;5111788;28;20519;-88
2023/06/11 03:10:21;;;;;;;20.90;6.43;;;;;;;39.74;38.29;101104.63;5111341;28;20550;-88
2023/06/11 03:12:47;;;;;;;17.97;9.30;;;;;;;39.68;38.29;101109.38;5111905;28;20650;-89
2023/06/11 03:15:13;;;;;;;13.07;8.10;;;;;;;39.58;38.21;101119.66;5111657;28;20190;-90
2023/06/11 03:17:38;;;;;;;20.00;8.30;;;;;;;39.58;38.32;101109.59;5113372;28;20650;-88
2023/06/11 03:20:05;;;;;;;16.63;8.03;;;;;;;39.81;37.82;101115.03;5111743;28;20424;-88
2023/06/11 03:22:31;;;;;;;14.40;7.67;;;;;;;39.71;38.13;101116.09;5112020;28;20498;-90
2023/06/11 03:24:57;;;;;;;17.33;9.40;;;;;;;39.58;38.26;101109.59;5111885;28;20460;-90
2023/06/11 03:27:23;;;;;;;24.07;7.37;;;;;;;39.61;38.70;101119.91;5112304;28;20206;-90
2023/06/11 03:29:49;;;;;;;16.63;8.53;;;;;;;39.74;38.49;101124.44;5111730;28;20522;-90
2023/06/11 03:32:15;;;;;;;16.23;9.23;;;;;;;39.59;38.60;101123.97;5111639;28;20428;-88
2023/06/11 03:34:42;;;;;;;20.33;9.47;;;;;;;39.64;38.55;101127.41;5111491;28;20431;-88
2023/06/11 03:37:10;;;;;;;22.53;9.77;;;;;;;39.72;38.56;101125.88;5111388;28;20416;-88
2023/06/11 03:39:41;;;;;;;34.27;11.87;;;;;;;39.84;38.27;101123.38;5111375;28;20432;-89
2023/06/11 03:42:07;;;;;;;17.00;8.87;;;;;;;39.80;38.16;101133.25;5111439;28;20423;-88
2023/06/11 03:44:33;;;;;;;27.10;11.77;;;;;;;39.63;38.76;101144.81;5111099;28;20430;-88
2023/06/11 03:46:59;;;;;;;16.40;9.83;;;;;;;39.72;38.56;101136.72;5111397;28;20550;-88
2023/06/11 03:49:25;;;;;;;22.77;9.27;;;;;;;39.79;38.24;101137.06;5111245;28;20554;-88
2023/06/11 03:51:51;;;;;;;27.30;11.10;;;;;;;39.65;38.57;101139.84;5111155;28;20592;-90
2023/06/11 03:54:17;;;;;;;22.13;9.47;;;;;;;39.80;38.64;101143.31;5111688;28;20264;-90
2023/06/11 03:56:43;;;;;;;24.60;10.57;;;;;;;39.48;38.91;101131.63;5111770;28;21081;-88
2023/06/11 03:59:09;;;;;;;20.77;10.90;;;;;;;39.51;38.79;101144.56;5110570;28;20867;-88
2023/06/11 04:01:35;;;;;;;14.93;9.10;;;;;;;39.64;38.13;101140.19;5111496;28;20554;-88
2023/06/11 04:04:00;;;;;;;22.73;11.63;;;;;;;39.66;38.95;101144.19;5113051;28;20193;-88
2023/06/11 04:06:27;;;;;;;22.10;9.63;;;;;;;39.66;38.95;101144.19;5115271;28;20460;-90
2023/06/11 04:08:54;;;;;;;23.27;11.00;;;;;;;39.70;39.17;101141.66;5115580;27;20435;-90
2023/06/11 04:11:20;;;;;;;25.83;11.43;;;;;;;39.64;39.21;101151.03;5118874;27;21005;-90
2023/06/11 04:13:50;;;;;;;18.17;8.97;;;;;;;39.68;39.12;101152.81;5118910;27;20476;-90
2023/06/11 04:16:18;;;;;;;29.43;10.57;;;;;;;39.40;39.70;101154.06;5119042;27;20542;-89
2023/06/11 04:18:47;;;;;;;21.80;9.30;;;;;;;39.47;39.19;101157.13;5118704;27;20529;-91
2023/06/11 04:21:13;;;;;;;23.13;10.30;;;;;;;39.59;39.55;101156.56;5118977;27;20856;-90
2023/06/11 04:23:40;;;;;;;21.73;8.50;;;;;;;39.54;39.64;101151.28;5118013;27;20426;-88
2023/06/11 04:26:10;;;;;;;19.70;8.07;;;;;;;39.46;39.45;101163.69;5117695;27;20977;-90
2023/06/11 04:28:38;;;;;;;18.07;9.73;;;;;;;39.47;38.92;101168.00;5118324;27;20415;-89
2023/06/11 04:31:06;;;;;;;18.93;8.20;;;;;;;39.09;38.98;101154.75;5118420;27;20433;-88
2023/06/11 04:33:33;;;;;;;24.03;9.90;;;;;;;39.35;39.01;101181.31;5134934;27;20434;-88
2023/06/11 04:36:09;;;;;;;25.00;11.23;;;;;;;39.43;39.46;101172.44;5117971;27;20478;-88
2023/06/11 04:38:38;;;;;;;17.87;11.10;;;;;;;39.52;39.20;101167.06;5117051;27;20426;-88
2023/06/11 04:41:08;;;;;;;20.57;8.70;;;;;;;39.49;38.72;101182.88;5117709;27;20447;-88
2023/06/11 04:43:34;;;;;;;15.43;8.73;;;;;;;39.56;38.51;101182.44;5117775;27;20484;-88
2023/06/11 04:46:03;;;;;;;18.47;9.37;;;;;;;39.64;38.40;101184.44;5117220;27;20500;-88
2023/06/11 04:48:34;;;;;;;25.53;10.47;;;;;;;39.51;38.75;101196.13;5117642;27;20499;-88
2023/06/11 04:51:02;;;;;;;17.30;8.67;;;;;;;39.55;38.40;101190.91;5117216;27;20988;-88
2023/06/11 04:53:29;;;;;;;21.03;8.53;;;;;;;39.69;38.76;101206.03;5117717;27;20926;-88
2023/06/11 04:55:57;;;;;;;15.30;6.67;;;;;;;39.76;37.82;101219.97;5116637;27;20427;-88
2023/06/11 04:58:24;;;;;;;13.47;8.00;;;;;;;39.80;38.06;101219.34;5117515;27;20454;-88
2023/06/11 05:00:52;;;;;;;16.50;7.83;;;;;;;39.84;38.44;101220.31;5117301;27;20427;-88
2023/06/11 05:03:19;;;;;;;24.43;10.73;;;;;;;39.75;38.22;101226.50;5117224;27;20938;-89
2023/06/11 05:05:52;;;;;;;15.63;7.10;;;;;;;39.67;38.01;101234.63;5103188;27;20444;-88
2023/06/11 05:08:18;;;;;;;17.53;8.40;;;;;;;39.72;38.02;101232.56;5117323;27;20419;-88
2023/06/11 05:10:45;;;;;;;17.03;9.60;;;;;;;39.79;38.47;101236.75;5113343;28;20547;-88
2023/06/11 05:13:12;;;;;;;19.90;9.07;;;;;;;39.90;37.97;101232.66;5113438;28;20886;-88
2023/06/11 05:15:38;;;;;;;20.13;8.73;;;;;;;39.60;38.59;101215.22;5112961;28;20443;-88
2023/06/11 05:18:04;;;;;;;29.33;12.87;;;;;;;39.74;38.58;101237.69;5113755;28;20463;-88
2023/06/11 05:20:30;;;;;;;29.87;11.27;;;;;;;39.46;38.31;101239.69;5113802;28;20908;-88
2023/06/11 05:23:02;;;;;;;30.77;12.73;;;;;;;39.50;38.23;101246.91;5113033;28;20416;-88
2023/06/11 05:25:29;;;;;;;35.20;11.83;;;;;;;39.50;38.95;101243.41;5113926;28;20511;-90
2023/06/11 05:28:00;;;;;;;27.60;11.53;;;;;;;39.58;38.83;101247.28;5113796;28;20527;-90
2023/06/11 05:30:29;;;;;;;33.40;13.10;;;;;;;39.51;38.69;101236.84;5112825;28;20430;-88
2023/06/11 05:33:01;;;;;;;29.90;11.87;;;;;;;39.25;39.46;101241.28;5113344;28;21027;-88
2023/06/11 05:35:27;;;;;;;22.57;12.40;;;;;;;39.54;38.99;101249.81;5113281;28;20530;-87
2023/06/11 05:37:55;;;;;;;24.30;9.83;;;;;;;39.25;39.09;101250.22;5113116;28;20515;-88
2023/06/11 05:40:22;;;;;;;23.33;12.30;;;;;;;39.47;38.23;101244.81;5113393;28;20466;-88
2023/06/11 05:42:48;;;;;;;24.13;12.67;;;;;;;39.52;38.55;101246.59;5113022;28;20458;-88
2023/06/11 05:45:15;;;;;;;18.83;10.20;;;;;;;39.45;38.93;101249.75;5112721;28;20830;-87
2023/06/11 05:47:40;;;;;;;24.80;11.40;;;;;;;39.29;38.46;101244.97;5112352;28;20202;-88
2023/06/11 05:50:07;;;;;;;18.10;8.77;;;;;;;39.49;38.44;101256.16;5112550;28;20427;-88
2023/06/11 05:52:33;;;;;;;25.97;13.13;;;;;;;39.49;38.57;101247.22;5112686;28;20186;-88
2023/06/11 05:55:02;;;;;;;21.13;11.23;;;;;;;39.64;38.38;101255.03;5112581;28;20507;-87
2023/06/11 05:57:28;;;;;;;26.37;14.13;;;;;;;39.64;38.69;101260.44;5112837;28;20292;-88
2023/06/11 05:59:57;;;;;;;25.43;12.57;;;;;;;39.56;38.71;101246.78;5112761;28;20515;-88
2023/06/11 06:02:23;;;;;;;27.83;13.33;;;;;;;39.64;38.98;101259.66;5111754;28;20435;-88
2023/06/11 06:04:49;;;;;;;23.60;14.60;;;;;;;39.58;39.62;101260.84;5104014;28;20804;-88
2023/06/11 06:07:18;;;;;;;23.80;14.03;;;;;;;39.80;38.81;101268.25;5107143;28;20839;-88
2023/06/11 06:09:44;;;;;;;25.30;13.07;;;;;;;39.76;39.51;101266.13;5112316;28;20460;-88
2023/06/11 06:12:10;;;;;;;17.77;12.77;;;;;;;39.86;39.48;101267.00;5112290;28;20509;-88
2023/06/11 06:14:36;;;;;;;27.17;11.63;;;;;;;39.94;38.93;101264.31;5112938;28;20519;-90
2023/06/11 06:17:02;;;;;;;19.70;11.63;;;;;;;39.95;39.02;101259.69;5112542;28;20942;-89
2023/06/11 06:19:28;;;;;;;24.80;12.60;;;;;;;39.95;38.64;101265.13;5112671;28;20461;-88
2023/06/11 06:21:54;;;;;;;26.87;12.63;;;;;;;39.59;38.35;101248.88;5112166;28;20432;-89
2023/06/11 06:24:20;;;;;;;36.80;12.67;;;;;;;39.63;38.51;101277.84;5112628;28;20444;-89
2023/06/11 06:26:47;;;;;;;27.23;13.70;;;;;;;39.60;38.72;101278.50;5111601;28;20456;-89
2023/06/11 06:29:14;;;;;;;27.10;12.50;;;;;;;39.63;39.38;101282.50;5112352;28;20622;-88
2023/06/11 06:31:43;;;;;;;19.33;9.57;;;;;;;39.65;38.90;101282.97;5112111;28;20792;-89
2023/06/11 06:34:09;;;;;;;25.60;12.00;;;;;;;39.47;38.51;101299.13;5112397;28;20452;-89
2023/06/11 06:36:38;;;;;;;21.67;11.10;;;;;;;39.45;38.00;101308.66;5111353;28;20504;-88
2023/06/11 06:39:07;;;;;;;24.87;10.20;;;;;;;39.57;38.35;101306.22;5104420;28;20457;-88
2023/06/11 06:41:33;;;;;;;33.27;14.40;;;;;;;39.35;39.09;101317.84;5112253;27;20554;-88
2023/06/11 06:43:59;;;;;;;28.77;11.23;;;;;;;39.41;39.08;101321.22;5104751;28;20531;-89
2023/06/11 06:46:25;;;;;;;22.07;12.20;;;;;;;39.27;38.95;101309.63;5111962;28;20459;-89
2023/06/11 06:48:51;;;;;;;24.47;11.60;;;;;;;39.18;39.58;101320.41;5111576;28;20485;-89
2023/06/11 06:51:20;;;;;;;30.47;16.10;;;;;;;39.43;39.11;101319.84;5112391;28;20585;-90
2023/06/11 06:53:50;;;;;;;25.73;12.17;;;;;;;39.25;39.01;101306.41;5112154;28;20871;-89
2023/06/11 06:56:17;;;;;;;23.33;11.50;;;;;;;39.24;39.15;101316.47;5112118;28;20443;-90
2023/06/11 06:58:43;;;;;;;23.00;12.10;;;;;;;39.09;39.30;101333.03;5108953;28;20519;-89
2023/06/11 07:01:09;;;;;;;29.10;12.30;;;;;;;39.03;39.71;101318.75;5112083;28;20508;-89
2023/06/11 07:03:38;;;;;;;26.77;13.27;;;;;;;39.13;39.57;101325.91;5111725;28;20967;-89
2023/06/11 07:06:04;;;;;;;34.70;13.90;;;;;;;38.86;40.08;101322.09;5097781;28;20582;-88
2023/06/11 07:08:30;;;;;;;31.53;13.03;;;;;;;38.90;40.23;101328.50;5111927;28;20420;-88
2023/06/11 07:10:56;;;;;;;37.73;13.53;;;;;;;39.08;39.90;101324.09;5108544;28;20486;-88
2023/06/11 07:13:25;;;;;;;31.13;13.33;;;;;;;38.67;40.18;101313.22;5103818;28;20416;-88
2023/06/11 07:15:51;;;;;;;30.30;13.83;;;;;;;38.90;40.00;101327.72;5102858;28;20452;-88
2023/06/11 07:18:17;;;;;;;30.47;11.90;;;;;;;39.01;39.61;101323.69;5096976;28;20945;-88
2023/06/11 07:20:44;;;;;;;26.07;12.40;;;;;;;39.06;40.11;101331.72;5101770;28;20431;-88
2023/06/11 07:23:13;;;;;;;33.03;12.47;;;;;;;39.11;40.17;101323.50;5096528;28;20421;-88
2023/06/11 07:25:43;;;;;;;27.30;14.70;;;;;;;38.90;40.35;101325.81;5097400;28;20427;-89
2023/06/11 07:28:09;;;;;;;25.93;12.40;;;;;;;39.20;39.79;101332.53;5096906;28;21004;-89
2023/06/11 07:30:35;;;;;;;22.93;13.50;;;;;;;39.14;39.90;101327.50;5099301;28;20429;-88
2023/06/11 07:33:29;;;;;;;27.70;12.47;;;;;;;39.28;39.64;101331.00;5095823;28;20553;-90
2023/06/11 07:35:57;;;;;;;28.67;12.60;;;;;;;39.26;39.26;101337.88;5102538;28;20424;-91
2023/06/11 07:38:23;;;;;;;20.73;10.23;;;;;;;39.41;39.05;101338.34;5108829;28;20435;-90
2023/06/11 07:40:49;;;;;;;26.80;12.27;;;;;;;39.55;38.57;101353.78;5112487;28;20420;-90
2023/06/11 07:43:15;;;;;;;26.47;13.30;;;;;;;39.64;38.53;101357.41;5114778;28;20459;-91
2023/06/11 07:45:41;;;;;;;35.13;13.23;;;;;;;39.70;38.41;101373.28;5115439;28;20498;-91
2023/06/11 07:48:07;;;;;;;24.30;11.13;;;;;;;39.76;38.52;101371.25;5114152;28;20507;-87
2023/06/11 07:50:33;;;;;;;27.73;12.17;;;;;;;39.70;38.19;101376.00;5113501;28;20420;-84
2023/06/11 07:53:01;;;;;;;22.57;11.97;;;;;;;39.73;38.01;101388.97;5114356;28;20481;-82
2023/06/11 07:55:27;;;;;;;35.10;12.97;;;;;;;39.76;37.27;101388.34;5101793;28;20423;-88
2023/06/11 07:57:53;;;;;;;28.13;13.80;;;;;;;40.00;37.25;101392.69;5113836;28;20954;-90
2023/06/11 08:00:22;;;;;;;21.67;11.00;;;;;;;39.81;37.07;101383.91;5113137;28;20182;-85
2023/06/11 08:02:48;;;;;;;25.70;11.93;;;;;;;39.98;37.42;101401.16;5113810;28;20254;-85
2023/06/11 08:05:17;;;;;;;26.87;12.27;;;;;;;39.82;37.57;101402.63;5101287;28;20421;-86
2023/06/11 08:07:48;;;;;;;18.60;11.30;;;;;;;39.86;37.72;101414.47;5114338;28;20509;-87
2023/06/11 08:10:14;;;;;;;32.23;11.90;;;;;;;39.91;37.10;101402.72;5105372;28;20475;-87
2023/06/11 08:12:41;;;;;;;19.97;11.57;;;;;;;39.95;37.20;101412.63;5105105;28;20425;-86
2023/06/11 08:15:08;;;;;;;26.93;13.53;;;;;;;40.05;36.38;101398.03;5107325;28;20420;-87
2023/06/11 08:17:34;;;;;;;29.17;12.63;;;;;;;39.96;37.01;101394.41;5115606;28;20412;-88
2023/06/11 08:20:07;;;;;;;20.77;10.30;;;;;;;40.02;37.13;101406.75;5114158;28;20971;-86
2023/06/11 08:22:33;;;;;;;31.47;11.20;;;;;;;39.74;37.06;101415.03;5109503;28;20467;-84
2023/06/11 08:24:59;;;;;;;17.93;9.90;;;;;;;39.70;36.25;101414.00;5108447;28;20935;-84
2023/06/11 08:27:25;;;;;;;17.97;9.33;;;;;;;39.90;36.07;101399.19;5113744;28;20987;-84
2023/06/11 08:29:51;;;;;;;27.67;12.00;;;;;;;39.82;36.62;101415.41;5114098;28;20423;-90
2023/06/11 08:32:17;;;;;;;29.20;10.67;;;;;;;39.85;36.03;101404.72;5114497;28;20214;-87
2023/06/11 08:34:42;;;;;;;18.30;11.90;;;;;;;39.64;36.51;101417.94;5113370;28;20200;-87
2023/06/11 08:37:08;;;;;;;27.20;12.83;;;;;;;40.00;36.20;101431.53;5110812;28;20186;-87
2023/06/11 08:39:35;;;;;;;22.33;10.33;;;;;;;39.70;35.38;101414.00;5108894;28;20182;-89
2023/06/11 08:42:01;;;;;;;23.33;10.20;;;;;;;39.75;35.12;101397.59;5103533;28;20430;-83
2023/06/11 08:44:27;;;;;;;27.53;12.40;;;;;;;39.83;35.32;101415.09;5113206;28;20423;-88
2023/06/11 09:13:11;;;;;;;27.20;10.80;;;;;;;40.28;34.95;101399.66;5450962;23;21071;-87
2023/06/11 09:32:54;;;;;;;30.03;11.57;;;;;;;39.98;36.65;101412.03;4983916;28;21015;-88
2023/06/11 09:35:21;;;;;;;22.73;11.57;;;;;;;40.07;36.08;101406.69;4960524;28;20437;-86
2023/06/11 09:37:51;;;;;;;20.83;11.83;;;;;;;39.98;36.55;101395.72;4976444;28;20520;-85
2023/06/11 09:40:23;;;;;;;21.13;8.53;;;;;;;39.86;36.55;101409.06;4999095;28;20459;-84
2023/06/11 09:42:58;;;;;;;25.00;11.97;;;;;;;40.33;36.68;101403.34;4976493;28;20437;-87
2023/06/11 09:45:55;;;;;;;;;;;;;;;;;;;;;
2023/06/11 09:48:25;;;;;;;22.13;10.93;;;;;;;40.35;36.03;101425.59;4995686;28;20413;-85
2023/06/11 09:51:08;;;;;;;;;;;;;;;;;;;;;
2023/06/11 09:53:37;;;;;;;24.67;11.00;;;;;;;40.37;35.59;101423.34;4997397;28;20804;-83
2023/06/11 09:56:05;;;;;;;22.63;11.60;;;;;;;40.51;35.57;101419.47;4968322;28;20410;-85
2023/06/11 09:58:36;;;;;;;29.93;11.13;;;;;;;40.45;35.64;101426.13;4992355;28;20421;-84
2023/06/11 10:01:07;;;;;;;17.03;12.50;;;;;;;40.55;35.03;101427.81;4979422;28;20422;-85
2023/06/11 10:03:36;;;;;;;24.27;11.73;;;;;;;40.49;34.86;101416.28;4967720;28;20414;-84
2023/06/11 10:06:10;;;;;;;30.93;11.30;;;;;;;40.67;35.04;101411.72;4971456;28;20449;-84
2023/06/11 10:08:54;;;;;;;;;;;;;;;;;;;;;
2023/06/11 10:11:39;;;;;;;;;;;;;;;;;;;;;
2023/06/11 10:14:17;;;;;;;20.70;12.10;;;;;;;40.81;34.51;101385.22;4989687;28;20961;-84
2023/06/11 10:16:54;;;;;;;28.80;11.80;;;;;;;40.89;34.69;101380.16;4976394;28;20409;-85
2023/06/11 10:19:26;;;;;;;23.07;9.93;;;;;;;40.99;34.55;101379.88;4972359;28;20480;-84
2023/06/11 10:21:55;;;;;;;27.10;10.27;;;;;;;40.79;34.92;101389.38;4997329;28;20421;-89
2023/06/11 10:24:26;;;;;;;16.77;8.70;;;;;;;40.57;34.41;101384.00;4970691;28;20449;-87
2023/06/11 10:27:22;;;;;;;25.57;11.33;;;;;;;40.86;34.44;101372.59;4985540;28;20445;-84
2023/06/11 10:29:49;;;;;;;23.07;9.93;;;;;;;40.76;33.80;101370.97;4975467;28;20536;-85
2023/06/11 10:32:22;;;;;;;19.10;8.87;;;;;;;40.88;34.02;101373.09;4992936;28;20421;-86
2023/06/11 10:35:01;;;;;;;26.37;10.77;;;;;;;40.78;34.76;101377.72;4972069;28;20430;-88
2023/06/11 10:37:36;;;;;;;32.13;12.37;;;;;;;41.07;34.25;101381.84;4962054;28;20441;-85
2023/06/11 10:40:07;;;;;;;27.13;12.80;;;;;;;40.95;34.33;101381.66;4992493;28;20802;-85
2023/06/11 10:42:51;;;;;;;18.53;9.37;;;;;;;40.55;34.18;101370.72;4973623;28;20478;-85
2023/06/11 10:45:17;;;;;;;19.60;7.80;;;;;;;40.64;33.74;101363.41;4983137;28;20813;-87
2023/06/11 10:47:46;;;;;;;21.93;10.77;;;;;;;40.67;34.29;101362.78;4973922;28;21051;-84
2023/06/11 10:50:33;;;;;;;;;;;;;;;;;;;;;
2023/06/11 10:53:17;;;;;;;28.87;11.80;;;;;;;40.45;34.76;101366.31;4992857;28;20413;-83
2023/06/11 10:55:47;;;;;;;25.90;9.83;;;;;;;40.87;34.59;101366.84;4975278;28;20429;-84
2023/06/11 10:58:29;;;;;;;24.17;10.50;;;;;;;40.58;34.62;101377.44;4991337;28;20475;-84
2023/06/11 11:00:58;;;;;;;26.03;9.80;;;;;;;40.90;33.37;101370.88;4984948;28;20460;-85
2023/06/11 11:03:31;;;;;;;20.77;9.30;;;;;;;40.89;33.47;101369.28;4980518;28;20445;-84
2023/06/11 11:06:34;;;;;;;19.93;9.20;;;;;;;40.75;33.72;101389.19;4991166;28;20424;-84
2023/06/11 11:09:29;;;;;;;21.63;10.90;;;;;;;40.90;33.59;101384.47;4975285;28;20528;-84
2023/06/11 11:12:04;;;;;;;25.53;10.60;;;;;;;40.97;33.63;101377.47;4983153;28;20417;-84
2023/06/11 11:14:36;;;;;;;15.43;8.60;;;;;;;40.90;33.31;101360.81;4986125;28;20620;-85
2023/06/11 11:17:25;;;;;;;18.73;10.50;;;;;;;40.89;33.67;101363.84;4979038;28;20444;-86
2023/06/11 11:19:51;;;;;;;34.57;13.73;;;;;;;40.91;34.77;101365.13;5004139;28;20975;-83
2023/06/11 11:22:17;;;;;;;15.50;9.60;;;;;;;40.95;34.19;101362.59;4994569;28;20520;-84
2023/06/11 11:24:43;;;;;;;33.67;10.97;;;;;;;40.88;33.55;101359.47;4979285;28;20504;-86
2023/06/11 11:27:09;;;;;;;23.77;10.17;;;;;;;40.82;33.58;101372.44;4995224;28;20552;-86
2023/06/11 11:29:37;;;;;;;26.53;10.10;;;;;;;40.91;34.57;101367.06;4975505;28;20488;-84
2023/06/11 11:32:03;;;;;;;36.20;12.17;;;;;;;40.92;34.52;101366.75;4979253;28;20417;-85
2023/06/11 11:34:29;;;;;;;31.10;11.33;;;;;;;40.66;34.07;101373.97;4978173;28;20841;-84
2023/06/11 11:36:55;;;;;;;26.83;10.10;;;;;;;40.91;33.95;101361.63;4978319;28;21004;-84
2023/06/11 11:39:21;;;;;;;19.73;9.17;;;;;;;40.81;34.33;101362.66;4978827;28;20425;-83
2023/06/11 11:41:53;;;;;;;31.00;12.93;;;;;;;40.96;34.21;101372.38;4997587;28;20198;-83
2023/06/11 11:44:20;;;;;;;19.30;10.70;;;;;;;40.75;34.68;101364.72;4995078;28;20417;-83
2023/06/11 11:46:46;;;;;;;28.67;12.90;;;;;;;40.63;34.53;101369.16;4994636;28;20812;-82
2023/06/11 11:49:13;;;;;;;19.57;9.30;;;;;;;40.79;34.28;101360.25;4975641;28;20454;-82
2023/06/11 11:51:51;;;;;;;31.10;12.43;;;;;;;40.91;35.24;101370.59;4991787;28;20808;-83
2023/06/11 11:54:20;;;;;;;21.13;11.43;;;;;;;40.70;34.54;101381.22;4994719;28;20540;-83
2023/06/11 11:56:46;;;;;;;24.30;11.33;;;;;;;40.81;35.18;101358.03;4996023;28;20459;-81
2023/06/11 11:59:22;;;;;;;26.73;11.17;;;;;;;40.42;35.14;101358.00;4996146;28;20441;-81
2023/06/11 12:01:58;;;;;;;28.17;15.03;;;;;;;40.80;34.72;101352.91;4994909;28;20471;-81
2023/06/11 12:04:38;;;;;;;28.70;11.37;;;;;;;40.59;35.55;101354.59;4994552;28;20495;-82
2023/06/11 12:07:12;;;;;;;20.63;9.83;;;;;;;40.55;34.61;101357.94;4978232;28;20531;-82
2023/06/11 12:09:39;;;;;;;23.37;10.50;;;;;;;40.27;35.46;101357.28;4978498;28;20464;-82
2023/06/11 12:12:06;;;;;;;20.67;10.57;;;;;;;40.40;35.65;101361.03;4994142;28;20995;-82
2023/06/11 12:14:41;;;;;;;23.73;10.80;;;;;;;40.22;35.18;101346.53;4995779;28;20463;-85